sensor_id;sensor_type;location;lat;lon;timestamp;P1;durP1;ratioP1;P2;durP2;ratioP2
69730;SDS011;56996;48.138;11.538;2023-03-14T00:01:26;1.00;;;0.10;;
69730;SDS011;56996;48.138;11.538;2023-03-14T00:03:52;0.80;;;0.30;;
69730;SDS011;56996;48.138;11.538;2023-03-14T00:06:19;1.60;;;0.40;;
69730;SDS011;56996;48.138;11.538;2023-03-14T00:08:47;2.00;;;0.40;;
69730;SDS011;56996;48.138;11.538;2023-03-14T00:11:23;2.00;;;0.40;;
69730;SDS011;56996;48.138;11.538;2023-03-14T00:13:50;1.90;;;0.30;;
69730;SDS011;56996;48.138;11.538;2023-03-14T00:16:18;1.40;;;0.40;;
69730;SDS011;56996;48.138;11.538;2023-03-14T00:18:45;2.60;;;0.30;;
69730;SDS011;56996;48.138;11.538;2023-03-14T00:21:13;1.90;;;0.40;;
69730;SDS011;56996;48.138;11.538;2023-03-14T00:23:41;2.00;;;0.30;;
69730;SDS011;56996;48.138;11.538;2023-03-14T00:26:11;3.90;;;0.50;;
69730;SDS011;56996;48.138;11.538;2023-03-14T00:28:40;2.30;;;0.50;;
69730;SDS011;56996;48.138;11.538;2023-03-14T00:31:10;1.30;;;0.30;;
69730;SDS011;56996;48.138;11.538;2023-03-14T00:33:40;0.50;;;0.20;;
69730;SDS011;56996;48.138;11.538;2023-03-14T00:36:12;1.00;;;0.20;;
69730;SDS011;56996;48.138;11.538;2023-03-14T00:38:41;1.30;;;0.30;;
69730;SDS011;56996;48.138;11.538;2023-03-14T00:41:11;1.60;;;0.30;;
69730;SDS011;56996;48.138;11.538;2023-03-14T00:43:40;1.00;;;0.30;;
69730;SDS011;56996;48.138;11.538;2023-03-14T00:46:07;1.20;;;0.40;;
69730;SDS011;56996;48.138;11.538;2023-03-14T00:48:34;1.40;;;0.30;;
69730;SDS011;56996;48.138;11.538;2023-03-14T00:51:05;1.40;;;0.30;;
69730;SDS011;56996;48.138;11.538;2023-03-14T00:53:38;1.80;;;0.40;;
69730;SDS011;56996;48.138;11.538;2023-03-14T00:56:08;1.90;;;0.40;;
69730;SDS011;56996;48.138;11.538;2023-03-14T00:58:36;1.40;;;0.20;;
69730;SDS011;56996;48.138;11.538;2023-03-14T01:01:16;1.40;;;0.30;;
69730;SDS011;56996;48.138;11.538;2023-03-14T01:03:45;1.20;;;0.10;;
69730;SDS011;56996;48.138;11.538;2023-03-14T01:06:17;1.70;;;0.20;;
69730;SDS011;56996;48.138;11.538;2023-03-14T01:08:46;1.10;;;0.20;;
69730;SDS011;56996;48.138;11.538;2023-03-14T01:11:16;0.90;;;0.10;;
69730;SDS011;56996;48.138;11.538;2023-03-14T01:13:45;1.00;;;0.20;;
69730;SDS011;56996;48.138;11.538;2023-03-14T01:16:15;2.00;;;0.20;;
69730;SDS011;56996;48.138;11.538;2023-03-14T01:18:44;0.40;;;0.10;;
69730;SDS011;56996;48.138;11.538;2023-03-14T01:21:23;1.50;;;0.20;;
69730;SDS011;56996;48.138;11.538;2023-03-14T01:23:53;1.70;;;0.20;;
69730;SDS011;56996;48.138;11.538;2023-03-14T01:26:23;2.40;;;0.30;;
69730;SDS011;56996;48.138;11.538;2023-03-14T01:28:53;2.40;;;0.30;;
69730;SDS011;56996;48.138;11.538;2023-03-14T01:31:21;2.60;;;0.30;;
69730;SDS011;56996;48.138;11.538;2023-03-14T01:33:48;1.10;;;0.20;;
69730;SDS011;56996;48.138;11.538;2023-03-14T01:36:15;3.20;;;0.60;;
69730;SDS011;56996;48.138;11.538;2023-03-14T01:38:42;1.80;;;0.30;;
69730;SDS011;56996;48.138;11.538;2023-03-14T01:41:21;1.70;;;0.40;;
69730;SDS011;56996;48.138;11.538;2023-03-14T01:43:50;0.90;;;0.20;;
69730;SDS011;56996;48.138;11.538;2023-03-14T01:49:19;1.00;;;0.10;;
69730;SDS011;56996;48.138;11.538;2023-03-14T01:54:43;1.30;;;0.20;;
69730;SDS011;56996;48.138;11.538;2023-03-14T01:57:17;1.60;;;0.20;;
69730;SDS011;56996;48.138;11.538;2023-03-14T01:59:57;3.80;;;0.40;;
69730;SDS011;56996;48.138;11.538;2023-03-14T02:02:27;1.20;;;0.20;;
69730;SDS011;56996;48.138;11.538;2023-03-14T02:04:55;1.60;;;0.20;;
69730;SDS011;56996;48.138;11.538;2023-03-14T02:07:38;0.50;;;0.10;;
69730;SDS011;56996;48.138;11.538;2023-03-14T02:10:21;1.40;;;0.50;;
69730;SDS011;56996;48.138;11.538;2023-03-14T02:12:51;0.70;;;0.20;;
69730;SDS011;56996;48.138;11.538;2023-03-14T02:15:38;2.00;;;0.20;;
69730;SDS011;56996;48.138;11.538;2023-03-14T02:18:18;0.40;;;0.20;;
69730;SDS011;56996;48.138;11.538;2023-03-14T02:21:14;1.10;;;0.20;;
69730;SDS011;56996;48.138;11.538;2023-03-14T02:23:47;0.40;;;0.10;;
69730;SDS011;56996;48.138;11.538;2023-03-14T02:27:03;1.10;;;0.20;;
69730;SDS011;56996;48.138;11.538;2023-03-14T02:29:49;1.50;;;0.20;;
69730;SDS011;56996;48.138;11.538;2023-03-14T02:32:20;0.80;;;0.10;;
69730;SDS011;56996;48.138;11.538;2023-03-14T02:34:52;1.20;;;0.10;;
69730;SDS011;56996;48.138;11.538;2023-03-14T02:37:27;0.70;;;0.10;;
69730;SDS011;56996;48.138;11.538;2023-03-14T02:40:03;1.60;;;0.30;;
69730;SDS011;56996;48.138;11.538;2023-03-14T02:42:32;1.10;;;0.20;;
69730;SDS011;56996;48.138;11.538;2023-03-14T02:47:39;1.40;;;0.20;;
69730;SDS011;56996;48.138;11.538;2023-03-14T02:50:14;1.50;;;0.20;;
69730;SDS011;56996;48.138;11.538;2023-03-14T02:52:43;1.70;;;0.20;;
69730;SDS011;56996;48.138;11.538;2023-03-14T02:55:10;0.70;;;0.20;;
69730;SDS011;56996;48.138;11.538;2023-03-14T02:57:38;1.00;;;0.20;;
69730;SDS011;56996;48.138;11.538;2023-03-14T03:00:05;0.40;;;0.20;;
69730;SDS011;56996;48.138;11.538;2023-03-14T03:02:35;0.60;;;0.20;;
69730;SDS011;56996;48.138;11.538;2023-03-14T03:05:01;0.70;;;0.20;;
69730;SDS011;56996;48.138;11.538;2023-03-14T03:07:28;0.90;;;0.20;;
69730;SDS011;56996;48.138;11.538;2023-03-14T03:09:55;0.80;;;0.20;;
69730;SDS011;56996;48.138;11.538;2023-03-14T03:12:22;1.40;;;0.20;;
69730;SDS011;56996;48.138;11.538;2023-03-14T03:14:48;1.40;;;0.30;;
69730;SDS011;56996;48.138;11.538;2023-03-14T03:17:15;1.00;;;0.20;;
69730;SDS011;56996;48.138;11.538;2023-03-14T03:19:43;0.50;;;0.10;;
69730;SDS011;56996;48.138;11.538;2023-03-14T03:22:10;1.40;;;0.10;;
69730;SDS011;56996;48.138;11.538;2023-03-14T03:24:39;0.40;;;0.10;;
69730;SDS011;56996;48.138;11.538;2023-03-14T03:27:06;0.20;;;0.00;;
69730;SDS011;56996;48.138;11.538;2023-03-14T03:29:32;0.90;;;0.10;;
69730;SDS011;56996;48.138;11.538;2023-03-14T03:31:59;0.80;;;0.10;;
69730;SDS011;56996;48.138;11.538;2023-03-14T03:34:27;0.90;;;0.30;;
69730;SDS011;56996;48.138;11.538;2023-03-14T03:36:58;0.90;;;0.10;;
69730;SDS011;56996;48.138;11.538;2023-03-14T03:39:26;0.40;;;0.10;;
69730;SDS011;56996;48.138;11.538;2023-03-14T03:41:52;1.30;;;0.20;;
69730;SDS011;56996;48.138;11.538;2023-03-14T03:44:19;0.10;;;0.10;;
69730;SDS011;56996;48.138;11.538;2023-03-14T03:46:46;0.00;;;0.00;;
69730;SDS011;56996;48.138;11.538;2023-03-14T03:49:12;0.20;;;0.00;;
69730;SDS011;56996;48.138;11.538;2023-03-14T03:51:39;0.90;;;0.10;;
69730;SDS011;56996;48.138;11.538;2023-03-14T03:54:06;0.30;;;0.10;;
69730;SDS011;56996;48.138;11.538;2023-03-14T03:56:33;0.40;;;0.10;;
69730;SDS011;56996;48.138;11.538;2023-03-14T03:58:59;0.40;;;0.10;;
69730;SDS011;56996;48.138;11.538;2023-03-14T04:01:26;0.80;;;0.10;;
69730;SDS011;56996;48.138;11.538;2023-03-14T04:03:53;1.50;;;0.10;;
69730;SDS011;56996;48.138;11.538;2023-03-14T04:06:21;0.90;;;0.10;;
69730;SDS011;56996;48.138;11.538;2023-03-14T04:08:49;0.10;;;0.00;;
69730;SDS011;56996;48.138;11.538;2023-03-14T04:11:31;0.30;;;0.10;;
69730;SDS011;56996;48.138;11.538;2023-03-14T04:14:18;0.90;;;0.10;;
69730;SDS011;56996;48.138;11.538;2023-03-14T04:16:45;0.30;;;0.10;;
69730;SDS011;56996;48.138;11.538;2023-03-14T04:19:14;0.50;;;0.10;;
69730;SDS011;56996;48.138;11.538;2023-03-14T04:21:41;0.30;;;0.10;;
69730;SDS011;56996;48.138;11.538;2023-03-14T04:24:11;1.80;;;0.20;;
69730;SDS011;56996;48.138;11.538;2023-03-14T04:26:39;0.90;;;0.10;;
69730;SDS011;56996;48.138;11.538;2023-03-14T04:29:08;0.30;;;0.00;;
69730;SDS011;56996;48.138;11.538;2023-03-14T04:31:37;0.50;;;0.10;;
69730;SDS011;56996;48.138;11.538;2023-03-14T04:34:04;2.30;;;0.40;;
69730;SDS011;56996;48.138;11.538;2023-03-14T04:36:38;0.50;;;0.10;;
69730;SDS011;56996;48.138;11.538;2023-03-14T04:39:11;0.30;;;0.00;;
69730;SDS011;56996;48.138;11.538;2023-03-14T04:41:41;1.50;;;0.10;;
69730;SDS011;56996;48.138;11.538;2023-03-14T04:44:09;0.90;;;0.10;;
69730;SDS011;56996;48.138;11.538;2023-03-14T04:46:36;0.20;;;0.10;;
69730;SDS011;56996;48.138;11.538;2023-03-14T04:49:05;0.60;;;0.10;;
69730;SDS011;56996;48.138;11.538;2023-03-14T04:51:32;0.80;;;0.10;;
69730;SDS011;56996;48.138;11.538;2023-03-14T04:53:59;0.40;;;0.10;;
69730;SDS011;56996;48.138;11.538;2023-03-14T04:56:26;0.40;;;0.10;;
69730;SDS011;56996;48.138;11.538;2023-03-14T04:58:54;0.50;;;0.10;;
69730;SDS011;56996;48.138;11.538;2023-03-14T05:01:21;0.40;;;0.10;;
69730;SDS011;56996;48.138;11.538;2023-03-14T05:04:17;0.50;;;0.10;;
69730;SDS011;56996;48.138;11.538;2023-03-14T05:07:14;0.50;;;0.10;;
69730;SDS011;56996;48.138;11.538;2023-03-14T05:09:47;0.20;;;0.00;;
69730;SDS011;56996;48.138;11.538;2023-03-14T05:12:42;1.00;;;0.10;;
69730;SDS011;56996;48.138;11.538;2023-03-14T05:15:26;0.60;;;0.20;;
69730;SDS011;56996;48.138;11.538;2023-03-14T05:18:09;0.50;;;0.10;;
69730;SDS011;56996;48.138;11.538;2023-03-14T05:20:50;1.00;;;0.10;;
69730;SDS011;56996;48.138;11.538;2023-03-14T05:23:38;0.30;;;0.10;;
69730;SDS011;56996;48.138;11.538;2023-03-14T05:26:23;0.90;;;0.00;;
69730;SDS011;56996;48.138;11.538;2023-03-14T05:28:57;1.10;;;0.10;;
69730;SDS011;56996;48.138;11.538;2023-03-14T05:31:42;0.50;;;0.10;;
69730;SDS011;56996;48.138;11.538;2023-03-14T05:34:22;0.40;;;0.10;;
69730;SDS011;56996;48.138;11.538;2023-03-14T05:37:06;0.70;;;0.10;;
69730;SDS011;56996;48.138;11.538;2023-03-14T05:39:33;2.00;;;0.30;;
69730;SDS011;56996;48.138;11.538;2023-03-14T05:42:29;1.20;;;0.20;;
69730;SDS011;56996;48.138;11.538;2023-03-14T05:45:07;0.70;;;0.10;;
69730;SDS011;56996;48.138;11.538;2023-03-14T05:48:03;0.60;;;0.10;;
69730;SDS011;56996;48.138;11.538;2023-03-14T05:50:42;0.40;;;0.10;;
69730;SDS011;56996;48.138;11.538;2023-03-14T05:53:19;0.10;;;0.00;;
69730;SDS011;56996;48.138;11.538;2023-03-14T05:55:56;1.40;;;0.20;;
69730;SDS011;56996;48.138;11.538;2023-03-14T05:58:56;1.10;;;0.20;;
69730;SDS011;56996;48.138;11.538;2023-03-14T06:01:39;0.50;;;0.10;;
69730;SDS011;56996;48.138;11.538;2023-03-14T06:04:09;1.00;;;0.10;;
69730;SDS011;56996;48.138;11.538;2023-03-14T06:06:37;1.90;;;0.30;;
69730;SDS011;56996;48.138;11.538;2023-03-14T06:09:04;0.30;;;0.10;;
69730;SDS011;56996;48.138;11.538;2023-03-14T06:11:32;2.10;;;0.40;;
69730;SDS011;56996;48.138;11.538;2023-03-14T06:13:59;0.80;;;0.20;;
69730;SDS011;56996;48.138;11.538;2023-03-14T06:16:26;1.40;;;0.30;;
69730;SDS011;56996;48.138;11.538;2023-03-14T06:18:52;2.10;;;0.30;;
69730;SDS011;56996;48.138;11.538;2023-03-14T06:21:21;1.40;;;0.20;;
69730;SDS011;56996;48.138;11.538;2023-03-14T06:23:48;0.90;;;0.20;;
69730;SDS011;56996;48.138;11.538;2023-03-14T06:26:15;2.60;;;0.40;;
69730;SDS011;56996;48.138;11.538;2023-03-14T06:28:44;2.40;;;0.40;;
69730;SDS011;56996;48.138;11.538;2023-03-14T06:31:11;1.60;;;0.20;;
69730;SDS011;56996;48.138;11.538;2023-03-14T06:33:45;1.60;;;0.50;;
69730;SDS011;56996;48.138;11.538;2023-03-14T06:36:12;1.20;;;0.20;;
69730;SDS011;56996;48.138;11.538;2023-03-14T06:38:40;1.50;;;0.30;;
69730;SDS011;56996;48.138;11.538;2023-03-14T06:41:07;1.60;;;0.30;;
69730;SDS011;56996;48.138;11.538;2023-03-14T06:43:38;0.80;;;0.30;;
69730;SDS011;56996;48.138;11.538;2023-03-14T06:46:05;2.40;;;0.70;;
69730;SDS011;56996;48.138;11.538;2023-03-14T06:48:33;1.50;;;0.20;;
69730;SDS011;56996;48.138;11.538;2023-03-14T06:50:59;1.40;;;0.30;;
69730;SDS011;56996;48.138;11.538;2023-03-14T06:53:26;2.80;;;0.80;;
69730;SDS011;56996;48.138;11.538;2023-03-14T06:55:53;2.30;;;0.50;;
69730;SDS011;56996;48.138;11.538;2023-03-14T06:58:20;2.40;;;0.40;;
69730;SDS011;56996;48.138;11.538;2023-03-14T07:00:47;0.70;;;0.20;;
69730;SDS011;56996;48.138;11.538;2023-03-14T07:03:18;2.70;;;0.60;;
69730;SDS011;56996;48.138;11.538;2023-03-14T07:05:47;2.50;;;0.80;;
69730;SDS011;56996;48.138;11.538;2023-03-14T07:08:14;2.90;;;0.70;;
69730;SDS011;56996;48.138;11.538;2023-03-14T07:10:41;3.40;;;0.80;;
69730;SDS011;56996;48.138;11.538;2023-03-14T07:13:08;3.40;;;1.00;;
69730;SDS011;56996;48.138;11.538;2023-03-14T07:15:42;3.70;;;0.90;;
69730;SDS011;56996;48.138;11.538;2023-03-14T07:18:09;3.20;;;1.00;;
69730;SDS011;56996;48.138;11.538;2023-03-14T07:20:35;2.10;;;0.50;;
69730;SDS011;56996;48.138;11.538;2023-03-14T07:23:02;3.20;;;0.60;;
69730;SDS011;56996;48.138;11.538;2023-03-14T07:25:38;2.20;;;0.50;;
69730;SDS011;56996;48.138;11.538;2023-03-14T07:28:05;1.10;;;0.40;;
69730;SDS011;56996;48.138;11.538;2023-03-14T07:30:32;3.20;;;0.70;;
69730;SDS011;56996;48.138;11.538;2023-03-14T07:33:00;1.70;;;0.50;;
69730;SDS011;56996;48.138;11.538;2023-03-14T07:35:27;0.90;;;0.30;;
69730;SDS011;56996;48.138;11.538;2023-03-14T07:37:53;1.90;;;0.60;;
69730;SDS011;56996;48.138;11.538;2023-03-14T07:40:25;1.40;;;0.40;;
69730;SDS011;56996;48.138;11.538;2023-03-14T07:42:52;2.70;;;0.60;;
69730;SDS011;56996;48.138;11.538;2023-03-14T07:45:36;2.20;;;0.70;;
69730;SDS011;56996;48.138;11.538;2023-03-14T07:48:08;3.20;;;0.70;;
69730;SDS011;56996;48.138;11.538;2023-03-14T07:50:36;1.90;;;0.40;;
69730;SDS011;56996;48.138;11.538;2023-03-14T07:53:02;1.40;;;0.40;;
69730;SDS011;56996;48.138;11.538;2023-03-14T07:55:29;2.00;;;0.40;;
69730;SDS011;56996;48.138;11.538;2023-03-14T07:57:56;2.00;;;0.20;;
69730;SDS011;56996;48.138;11.538;2023-03-14T08:00:23;2.00;;;0.30;;
69730;SDS011;56996;48.138;11.538;2023-03-14T08:02:49;2.00;;;0.30;;
69730;SDS011;56996;48.138;11.538;2023-03-14T08:05:16;2.90;;;0.30;;
69730;SDS011;56996;48.138;11.538;2023-03-14T08:07:44;2.20;;;0.30;;
69730;SDS011;56996;48.138;11.538;2023-03-14T08:10:11;3.70;;;0.40;;
69730;SDS011;56996;48.138;11.538;2023-03-14T08:12:42;1.80;;;0.30;;
69730;SDS011;56996;48.138;11.538;2023-03-14T08:15:08;2.80;;;0.50;;
69730;SDS011;56996;48.138;11.538;2023-03-14T08:17:35;2.10;;;0.40;;
69730;SDS011;56996;48.138;11.538;2023-03-14T08:20:04;2.90;;;0.50;;
69730;SDS011;56996;48.138;11.538;2023-03-14T08:22:34;2.50;;;0.40;;
69730;SDS011;56996;48.138;11.538;2023-03-14T08:25:01;2.90;;;0.30;;
69730;SDS011;56996;48.138;11.538;2023-03-14T08:27:28;0.70;;;0.20;;
69730;SDS011;56996;48.138;11.538;2023-03-14T08:29:55;3.50;;;0.40;;
69730;SDS011;56996;48.138;11.538;2023-03-14T08:32:21;2.30;;;0.40;;
69730;SDS011;56996;48.138;11.538;2023-03-14T08:34:50;1.20;;;0.30;;
69730;SDS011;56996;48.138;11.538;2023-03-14T08:37:16;3.10;;;0.30;;
69730;SDS011;56996;48.138;11.538;2023-03-14T08:39:52;2.00;;;0.40;;
69730;SDS011;56996;48.138;11.538;2023-03-14T08:42:20;2.50;;;0.40;;
69730;SDS011;56996;48.138;11.538;2023-03-14T08:44:46;1.90;;;0.30;;
69730;SDS011;56996;48.138;11.538;2023-03-14T08:47:13;3.10;;;0.50;;
69730;SDS011;56996;48.138;11.538;2023-03-14T08:49:40;2.80;;;0.40;;
69730;SDS011;56996;48.138;11.538;2023-03-14T08:52:06;3.20;;;0.40;;
69730;SDS011;56996;48.138;11.538;2023-03-14T08:54:33;1.40;;;0.30;;
69730;SDS011;56996;48.138;11.538;2023-03-14T08:57:00;3.50;;;0.40;;
69730;SDS011;56996;48.138;11.538;2023-03-14T08:59:26;3.90;;;0.60;;
69730;SDS011;56996;48.138;11.538;2023-03-14T09:01:53;3.60;;;0.70;;
69730;SDS011;56996;48.138;11.538;2023-03-14T09:04:21;5.20;;;0.60;;
69730;SDS011;56996;48.138;11.538;2023-03-14T09:06:48;2.40;;;0.40;;
69730;SDS011;56996;48.138;11.538;2023-03-14T09:09:15;2.40;;;0.40;;
69730;SDS011;56996;48.138;11.538;2023-03-14T09:11:41;1.70;;;0.30;;
69730;SDS011;56996;48.138;11.538;2023-03-14T09:14:09;2.40;;;0.50;;
69730;SDS011;56996;48.138;11.538;2023-03-14T09:16:36;3.90;;;0.40;;
69730;SDS011;56996;48.138;11.538;2023-03-14T09:19:03;3.70;;;1.20;;
69730;SDS011;56996;48.138;11.538;2023-03-14T09:21:30;4.70;;;1.10;;
69730;SDS011;56996;48.138;11.538;2023-03-14T09:23:56;4.20;;;0.50;;
69730;SDS011;56996;48.138;11.538;2023-03-14T09:26:23;1.70;;;0.40;;
69730;SDS011;56996;48.138;11.538;2023-03-14T09:28:50;2.10;;;0.40;;
69730;SDS011;56996;48.138;11.538;2023-03-14T09:31:17;2.50;;;0.40;;
69730;SDS011;56996;48.138;11.538;2023-03-14T09:33:44;3.60;;;0.60;;
69730;SDS011;56996;48.138;11.538;2023-03-14T09:36:11;3.50;;;0.60;;
69730;SDS011;56996;48.138;11.538;2023-03-14T09:38:38;1.70;;;0.40;;
69730;SDS011;56996;48.138;11.538;2023-03-14T09:41:14;2.70;;;0.30;;
69730;SDS011;56996;48.138;11.538;2023-03-14T09:43:44;2.10;;;0.30;;
69730;SDS011;56996;48.138;11.538;2023-03-14T09:46:13;3.20;;;0.50;;
69730;SDS011;56996;48.138;11.538;2023-03-14T09:48:41;3.50;;;0.50;;
69730;SDS011;56996;48.138;11.538;2023-03-14T09:51:14;1.60;;;0.30;;
69730;SDS011;56996;48.138;11.538;2023-03-14T09:53:45;4.20;;;0.50;;
69730;SDS011;56996;48.138;11.538;2023-03-14T09:56:17;2.30;;;0.50;;
69730;SDS011;56996;48.138;11.538;2023-03-14T09:58:50;4.80;;;0.50;;
69730;SDS011;56996;48.138;11.538;2023-03-14T10:01:27;3.60;;;0.60;;
69730;SDS011;56996;48.138;11.538;2023-03-14T10:04:04;3.60;;;0.60;;
69730;SDS011;56996;48.138;11.538;2023-03-14T10:06:33;1.50;;;0.30;;
69730;SDS011;56996;48.138;11.538;2023-03-14T10:09:02;2.50;;;0.50;;
69730;SDS011;56996;48.138;11.538;2023-03-14T10:11:29;2.60;;;0.50;;
69730;SDS011;56996;48.138;11.538;2023-03-14T10:14:33;2.00;;;0.60;;
69730;SDS011;56996;48.138;11.538;2023-03-14T10:17:06;5.40;;;1.00;;
69730;SDS011;56996;48.138;11.538;2023-03-14T10:19:35;3.40;;;0.60;;
69730;SDS011;56996;48.138;11.538;2023-03-14T10:22:04;2.60;;;0.40;;
69730;SDS011;56996;48.138;11.538;2023-03-14T10:24:34;3.10;;;0.70;;
69730;SDS011;56996;48.138;11.538;2023-03-14T10:27:10;3.20;;;0.60;;
69730;SDS011;56996;48.138;11.538;2023-03-14T10:29:56;1.90;;;0.40;;
69730;SDS011;56996;48.138;11.538;2023-03-14T10:32:33;3.20;;;0.40;;
69730;SDS011;56996;48.138;11.538;2023-03-14T10:35:23;2.30;;;0.40;;
69730;SDS011;56996;48.138;11.538;2023-03-14T10:37:55;1.70;;;0.30;;
69730;SDS011;56996;48.138;11.538;2023-03-14T10:40:32;2.10;;;0.40;;
69730;SDS011;56996;48.138;11.538;2023-03-14T10:43:04;1.50;;;0.30;;
69730;SDS011;56996;48.138;11.538;2023-03-14T10:45:41;3.40;;;0.40;;
69730;SDS011;56996;48.138;11.538;2023-03-14T10:48:21;0.70;;;0.20;;
69730;SDS011;56996;48.138;11.538;2023-03-14T10:56:27;3.80;;;0.50;;
69730;SDS011;56996;48.138;11.538;2023-03-14T10:58:58;1.10;;;0.30;;
69730;SDS011;56996;48.138;11.538;2023-03-14T11:01:32;4.70;;;1.30;;
69730;SDS011;56996;48.138;11.538;2023-03-14T11:06:48;1.40;;;0.40;;
69730;SDS011;56996;48.138;11.538;2023-03-14T11:09:37;2.00;;;0.40;;
69730;SDS011;56996;48.138;11.538;2023-03-14T11:21:13;2.10;;;0.30;;
69730;SDS011;56996;48.138;11.538;2023-03-14T11:29:39;0.90;;;0.30;;
69730;SDS011;56996;48.138;11.538;2023-03-14T11:32:35;1.30;;;0.30;;
69730;SDS011;56996;48.138;11.538;2023-03-14T11:35:45;2.50;;;0.40;;
69730;SDS011;56996;48.138;11.538;2023-03-14T11:38:37;0.80;;;0.20;;
69730;SDS011;56996;48.138;11.538;2023-03-14T11:41:38;0.90;;;0.20;;
69730;SDS011;56996;48.138;11.538;2023-03-14T11:46:56;0.70;;;0.20;;
69730;SDS011;56996;48.138;11.538;2023-03-14T11:52:05;0.90;;;0.20;;
69730;SDS011;56996;48.138;11.538;2023-03-14T11:55:00;1.30;;;0.30;;
69730;SDS011;56996;48.138;11.538;2023-03-14T11:57:29;1.50;;;0.40;;
69730;SDS011;56996;48.138;11.538;2023-03-14T12:00:04;2.00;;;0.30;;
69730;SDS011;56996;48.138;11.538;2023-03-14T12:03:14;1.10;;;0.10;;
69730;SDS011;56996;48.138;11.538;2023-03-14T12:09:04;1.00;;;0.20;;
69730;SDS011;56996;48.138;11.538;2023-03-14T12:11:57;4.00;;;0.30;;
69730;SDS011;56996;48.138;11.538;2023-03-14T12:14:32;2.30;;;0.30;;
69730;SDS011;56996;48.138;11.538;2023-03-14T12:17:17;1.70;;;0.30;;
69730;SDS011;56996;48.138;11.538;2023-03-14T12:19:48;1.90;;;0.20;;
69730;SDS011;56996;48.138;11.538;2023-03-14T12:22:28;3.00;;;0.20;;
69730;SDS011;56996;48.138;11.538;2023-03-14T12:25:00;1.60;;;0.20;;
69730;SDS011;56996;48.138;11.538;2023-03-14T12:27:43;2.20;;;0.30;;
69730;SDS011;56996;48.138;11.538;2023-03-14T12:43:47;1.30;;;0.30;;
69730;SDS011;56996;48.138;11.538;2023-03-14T12:46:34;1.40;;;0.20;;
69730;SDS011;56996;48.138;11.538;2023-03-14T12:51:37;1.00;;;0.20;;
69730;SDS011;56996;48.138;11.538;2023-03-14T13:00:33;1.30;;;0.20;;
69730;SDS011;56996;48.138;11.538;2023-03-14T13:03:19;3.20;;;0.40;;
69730;SDS011;56996;48.138;11.538;2023-03-14T13:05:57;1.90;;;0.30;;
69730;SDS011;56996;48.138;11.538;2023-03-14T13:08:37;0.70;;;0.10;;
69730;SDS011;56996;48.138;11.538;2023-03-14T13:11:19;1.20;;;0.20;;
69730;SDS011;56996;48.138;11.538;2023-03-14T13:13:49;1.00;;;0.20;;
69730;SDS011;56996;48.138;11.538;2023-03-14T13:16:23;1.40;;;0.20;;
69730;SDS011;56996;48.138;11.538;2023-03-14T13:18:59;1.50;;;0.20;;
69730;SDS011;56996;48.138;11.538;2023-03-14T13:21:28;1.70;;;0.30;;
69730;SDS011;56996;48.138;11.538;2023-03-14T13:24:07;0.90;;;0.30;;
69730;SDS011;56996;48.138;11.538;2023-03-14T13:26:47;2.00;;;0.20;;
69730;SDS011;56996;48.138;11.538;2023-03-14T13:31:52;2.30;;;0.20;;
69730;SDS011;56996;48.138;11.538;2023-03-14T13:34:20;0.40;;;0.20;;
69730;SDS011;56996;48.138;11.538;2023-03-14T13:36:47;1.10;;;0.20;;
69730;SDS011;56996;48.138;11.538;2023-03-14T13:39:21;0.70;;;0.20;;
69730;SDS011;56996;48.138;11.538;2023-03-14T13:41:52;4.00;;;1.20;;
69730;SDS011;56996;48.138;11.538;2023-03-14T13:47:18;3.00;;;0.20;;
69730;SDS011;56996;48.138;11.538;2023-03-14T13:49:46;1.50;;;0.20;;
69730;SDS011;56996;48.138;11.538;2023-03-14T13:52:23;1.80;;;0.20;;
69730;SDS011;56996;48.138;11.538;2023-03-14T13:54:57;1.00;;;0.10;;
69730;SDS011;56996;48.138;11.538;2023-03-14T13:57:26;0.90;;;0.20;;
69730;SDS011;56996;48.138;11.538;2023-03-14T14:00:05;2.10;;;0.30;;
69730;SDS011;56996;48.138;11.538;2023-03-14T14:02:37;2.70;;;0.30;;
69730;SDS011;56996;48.138;11.538;2023-03-14T14:05:04;2.70;;;0.30;;
69730;SDS011;56996;48.138;11.538;2023-03-14T14:07:32;0.50;;;0.10;;
69730;SDS011;56996;48.138;11.538;2023-03-14T14:09:59;0.70;;;0.20;;
69730;SDS011;56996;48.138;11.538;2023-03-14T14:12:35;0.50;;;0.10;;
69730;SDS011;56996;48.138;11.538;2023-03-14T14:15:07;0.50;;;0.20;;
69730;SDS011;56996;48.138;11.538;2023-03-14T14:17:44;1.70;;;0.30;;
69730;SDS011;56996;48.138;11.538;2023-03-14T14:20:40;1.40;;;0.20;;
69730;SDS011;56996;48.138;11.538;2023-03-14T14:23:13;1.10;;;0.30;;
69730;SDS011;56996;48.138;11.538;2023-03-14T14:25:43;2.80;;;0.20;;
69730;SDS011;56996;48.138;11.538;2023-03-14T14:33:46;0.80;;;0.10;;
69730;SDS011;56996;48.138;11.538;2023-03-14T14:36:41;0.80;;;0.10;;
69730;SDS011;56996;48.138;11.538;2023-03-14T14:39:17;1.20;;;0.20;;
69730;SDS011;56996;48.138;11.538;2023-03-14T14:41:48;0.80;;;0.10;;
69730;SDS011;56996;48.138;11.538;2023-03-14T14:44:21;2.90;;;0.20;;
69730;SDS011;56996;48.138;11.538;2023-03-14T14:46:55;1.40;;;0.20;;
69730;SDS011;56996;48.138;11.538;2023-03-14T14:49:31;1.50;;;0.10;;
69730;SDS011;56996;48.138;11.538;2023-03-14T14:52:19;1.00;;;0.10;;
69730;SDS011;56996;48.138;11.538;2023-03-14T14:54:58;0.90;;;0.10;;
69730;SDS011;56996;48.138;11.538;2023-03-14T14:57:29;0.50;;;0.20;;
69730;SDS011;56996;48.138;11.538;2023-03-14T15:00:04;0.30;;;0.10;;
69730;SDS011;56996;48.138;11.538;2023-03-14T15:02:40;0.50;;;0.10;;
69730;SDS011;56996;48.138;11.538;2023-03-14T15:05:16;0.40;;;0.10;;
69730;SDS011;56996;48.138;11.538;2023-03-14T15:07:44;1.00;;;0.20;;
69730;SDS011;56996;48.138;11.538;2023-03-14T15:10:14;0.90;;;0.20;;
69730;SDS011;56996;48.138;11.538;2023-03-14T15:12:43;0.50;;;0.20;;
69730;SDS011;56996;48.138;11.538;2023-03-14T15:15:11;1.10;;;0.30;;
69730;SDS011;56996;48.138;11.538;2023-03-14T15:17:38;0.60;;;0.20;;
69730;SDS011;56996;48.138;11.538;2023-03-14T15:20:06;2.40;;;0.50;;
69730;SDS011;56996;48.138;11.538;2023-03-14T15:22:40;1.20;;;0.20;;
69730;SDS011;56996;48.138;11.538;2023-03-14T15:25:08;1.40;;;0.30;;
69730;SDS011;56996;48.138;11.538;2023-03-14T15:27:52;0.80;;;0.20;;
69730;SDS011;56996;48.138;11.538;2023-03-14T15:30:19;1.40;;;0.30;;
69730;SDS011;56996;48.138;11.538;2023-03-14T15:32:46;2.80;;;0.30;;
69730;SDS011;56996;48.138;11.538;2023-03-14T15:35:13;1.50;;;0.30;;
69730;SDS011;56996;48.138;11.538;2023-03-14T15:37:43;2.30;;;0.20;;
69730;SDS011;56996;48.138;11.538;2023-03-14T15:40:12;1.80;;;0.40;;
69730;SDS011;56996;48.138;11.538;2023-03-14T15:42:41;1.90;;;0.40;;
69730;SDS011;56996;48.138;11.538;2023-03-14T15:45:08;1.70;;;0.30;;
69730;SDS011;56996;48.138;11.538;2023-03-14T15:47:35;1.60;;;0.40;;
69730;SDS011;56996;48.138;11.538;2023-03-14T15:50:02;2.40;;;0.40;;
69730;SDS011;56996;48.138;11.538;2023-03-14T15:52:30;1.40;;;0.40;;
69730;SDS011;56996;48.138;11.538;2023-03-14T15:54:56;2.20;;;0.40;;
69730;SDS011;56996;48.138;11.538;2023-03-14T15:57:26;2.20;;;0.50;;
69730;SDS011;56996;48.138;11.538;2023-03-14T15:59:52;2.90;;;0.40;;
69730;SDS011;56996;48.138;11.538;2023-03-14T16:02:19;1.50;;;0.70;;
69730;SDS011;56996;48.138;11.538;2023-03-14T16:04:46;1.70;;;0.50;;
69730;SDS011;56996;48.138;11.538;2023-03-14T16:07:13;2.70;;;0.60;;
69730;SDS011;56996;48.138;11.538;2023-03-14T16:09:40;1.70;;;0.30;;
69730;SDS011;56996;48.138;11.538;2023-03-14T16:12:07;2.70;;;0.40;;
69730;SDS011;56996;48.138;11.538;2023-03-14T16:14:35;1.50;;;0.30;;
69730;SDS011;56996;48.138;11.538;2023-03-14T16:17:02;2.60;;;0.50;;